createdAt,value
2022-09-20T00:03:02.996Z,96039.00
2022-09-20T00:08:31.487Z,96043.00
2022-09-20T00:14:01.554Z,96046.00
2022-09-20T00:19:29.866Z,96028.00
2022-09-20T00:24:57.883Z,96030.00
2022-09-20T00:30:26.612Z,96029.00
2022-09-20T00:35:54.313Z,96027.00
2022-09-20T00:41:22.187Z,96024.00
2022-09-20T00:46:50.263Z,96033.00
2022-09-20T00:52:19.483Z,96028.00
2022-09-20T00:57:48.436Z,96025.00
2022-09-20T01:03:22.978Z,96027.00
2022-09-20T01:08:54.998Z,96031.00
2022-09-20T01:14:24.237Z,96039.00
2022-09-20T01:20:20.966Z,96024.00
2022-09-20T01:26:06.862Z,96024.00
2022-09-20T01:31:43.892Z,96022.00
2022-09-20T01:37:36.937Z,96008.00
2022-09-20T01:43:16.880Z,96002.00
2022-09-20T01:48:44.724Z,95987.00
2022-09-20T01:54:43.157Z,96007.00
2022-09-20T02:00:31.175Z,95995.00
2022-09-20T02:06:18.080Z,95999.00
2022-09-20T02:12:33.250Z,95988.00
2022-09-20T02:18:22.911Z,95985.00
2022-09-20T02:24:02.828Z,95989.00
2022-09-20T02:29:42.665Z,95991.00
2022-09-20T02:35:34.653Z,95991.00
2022-09-20T02:42:00.348Z,96005.00
2022-09-20T02:47:44.698Z,96008.00
2022-09-20T02:53:45.932Z,96007.00
2022-09-20T02:59:47.368Z,96002.00
2022-09-20T03:05:44.446Z,96004.00
2022-09-20T03:11:46.234Z,96004.00
2022-09-20T03:17:36.625Z,96014.00
2022-09-20T03:23:43.785Z,96001.00
2022-09-20T03:29:41.750Z,96003.00
2022-09-20T03:35:31.519Z,96007.00
2022-09-20T03:41:31.496Z,96005.00
2022-09-20T03:47:28.020Z,96011.00
2022-09-20T03:53:23.586Z,96004.00
2022-09-20T03:59:26.847Z,96005.00
2022-09-20T04:05:01.791Z,95999.00
2022-09-20T04:10:53.959Z,96015.00
2022-09-20T04:16:46.829Z,96010.00
2022-09-20T04:22:16.272Z,96024.00
2022-09-20T04:28:25.575Z,96022.00
2022-09-20T04:33:56.249Z,96023.00
2022-09-20T04:39:48.330Z,96015.00
2022-09-20T04:45:51.585Z,96021.00
2022-09-20T04:51:48.750Z,96024.00
2022-09-20T04:57:40.389Z,96028.00
2022-09-20T05:03:37.840Z,96027.00
2022-09-20T05:09:24.633Z,96025.00
2022-09-20T05:15:16.705Z,96036.00
2022-09-20T05:21:20.059Z,96038.00
2022-09-20T05:27:22.343Z,96043.00
2022-09-20T05:33:10.607Z,96053.00
2022-09-20T05:38:41.505Z,96049.00
2022-09-20T05:44:47.632Z,96045.00
2022-09-20T05:50:27.223Z,96048.00
2022-09-20T05:56:25.169Z,96061.00
2022-09-20T06:02:45.292Z,96060.00
2022-09-20T06:08:13.395Z,96074.00
2022-09-20T06:14:03.840Z,96076.00
2022-09-20T06:20:12.608Z,96078.00
2022-09-20T06:25:56.195Z,96078.00
2022-09-20T06:31:24.150Z,96072.00
2022-09-20T06:37:30.237Z,96078.00
2022-09-20T06:43:00.369Z,96085.00
2022-09-20T06:48:31.585Z,96104.00
2022-09-20T06:53:59.661Z,96090.00
2022-09-20T06:59:27.440Z,96096.00
2022-09-20T07:04:55.429Z,96104.00
2022-09-20T07:10:23.266Z,96088.00
2022-09-20T07:15:51.405Z,96094.00
2022-09-20T07:21:20.948Z,96092.00
2022-09-20T07:27:05.042Z,96105.00
2022-09-20T07:32:33.147Z,96099.00
2022-09-20T07:38:01.298Z,96106.00
2022-09-20T07:43:31.022Z,96089.00
2022-09-20T07:48:58.831Z,96103.00
2022-09-20T07:54:29.978Z,96119.00
2022-09-20T07:59:57.632Z,96125.00
2022-09-20T08:05:25.450Z,96131.00
2022-09-20T08:10:55.844Z,96131.00
2022-09-20T08:16:24.209Z,96129.00
2022-09-20T08:21:53.955Z,96129.00
2022-09-20T08:27:21.773Z,96126.00
2022-09-20T08:32:50.186Z,96130.00
2022-09-20T08:44:26.997Z,96131.00
2022-09-20T08:49:57.383Z,96136.00
2022-09-20T08:55:36.504Z,96141.00
2022-09-20T09:01:07.130Z,96141.00
2022-09-20T09:06:35.025Z,96142.00
2022-09-20T09:12:04.446Z,96145.00
2022-09-20T09:17:32.430Z,96139.00
2022-09-20T09:23:09.184Z,96147.00
2022-09-20T09:28:37.095Z,96132.00
2022-09-20T09:34:05.427Z,96133.00
2022-09-20T09:39:38.555Z,96129.00
2022-09-20T09:45:38.955Z,96125.00
2022-09-20T09:51:17.653Z,96122.00
2022-09-20T09:57:08.471Z,96118.00
2022-09-20T10:02:51.253Z,96118.00
2022-09-20T10:08:59.105Z,96117.00
2022-09-20T10:15:16.572Z,96112.00
2022-09-20T10:21:11.460Z,96118.00
2022-09-20T10:27:08.305Z,96116.00
2022-09-20T10:33:21.934Z,96115.00
2022-09-20T10:39:13.894Z,96118.00
2022-09-20T10:45:59.532Z,96116.00
2022-09-20T10:51:43.285Z,96116.00
2022-09-20T10:57:18.442Z,96109.00
2022-09-20T11:03:06.303Z,96124.00
2022-09-20T11:08:38.519Z,96113.00
2022-09-20T11:14:14.060Z,96116.00
2022-09-20T11:20:07.620Z,96121.00
2022-09-20T11:25:47.516Z,96123.00
2022-09-20T11:31:15.900Z,96119.00
2022-09-20T11:36:59.103Z,96126.00
2022-09-20T11:42:38.801Z,96126.00
2022-09-20T11:48:30.132Z,96107.00
2022-09-20T11:54:36.256Z,96112.00
2022-09-20T12:00:10.353Z,96110.00
2022-09-20T12:05:42.302Z,96099.00
2022-09-20T12:11:15.699Z,96115.00
2022-09-20T12:16:46.921Z,96114.00
2022-09-20T12:22:14.808Z,96098.00
2022-09-20T12:27:42.761Z,96102.00
2022-09-20T12:33:21.364Z,96092.00
2022-09-20T12:39:01.356Z,96081.00
2022-09-20T12:45:08.195Z,96081.00
2022-09-20T12:50:54.895Z,96088.00
2022-09-20T12:56:28.056Z,96082.00
2022-09-20T13:01:55.830Z,96077.00
2022-09-20T13:07:43.363Z,96083.00
2022-09-20T13:13:48.363Z,96093.00
2022-09-20T13:19:26.004Z,96087.00
2022-09-20T13:25:00.035Z,96078.00
2022-09-20T13:30:33.167Z,96088.00
2022-09-20T13:36:01.418Z,96084.00
2022-09-20T13:41:31.509Z,96086.00
2022-09-20T13:46:59.624Z,96085.00
2022-09-20T13:52:31.196Z,96073.00
2022-09-20T13:58:09.237Z,96078.00
2022-09-20T14:03:37.123Z,96086.00
2022-09-20T14:09:11.377Z,96081.00
2022-09-20T14:14:40.000Z,96089.00
2022-09-20T14:20:15.289Z,96083.00
2022-09-20T14:25:43.440Z,96090.00
2022-09-20T14:31:31.976Z,96074.00
2022-09-20T14:37:41.838Z,96082.00
2022-09-20T14:43:33.914Z,96048.00
2022-09-20T14:49:25.582Z,96037.00
2022-09-20T14:55:21.602Z,96056.00
2022-09-20T15:01:24.028Z,96083.00
2022-09-20T15:06:52.712Z,96080.00
2022-09-20T15:12:21.733Z,96087.00
2022-09-20T15:17:49.571Z,96097.00
2022-09-20T15:23:18.251Z,96092.00
2022-09-20T15:28:46.473Z,96095.00
2022-09-20T15:34:15.310Z,96095.00
2022-09-20T15:39:44.222Z,96107.00
2022-09-20T15:45:12.666Z,96111.00
2022-09-20T15:50:44.037Z,96100.00
2022-09-20T15:56:18.212Z,96097.00
2022-09-20T16:01:48.152Z,96108.00
2022-09-20T16:07:17.738Z,96108.00
2022-09-20T16:12:46.385Z,96114.00
2022-09-20T16:18:32.408Z,96126.00
2022-09-20T16:24:00.956Z,96127.00
2022-09-20T16:29:30.510Z,96125.00
2022-09-20T16:35:01.162Z,96127.00
2022-09-20T16:40:29.037Z,96145.00
2022-09-20T16:46:01.079Z,96151.00
2022-09-20T16:51:36.495Z,96152.00
2022-09-20T16:57:05.301Z,96154.00
2022-09-20T17:02:33.121Z,96168.00
2022-09-20T17:08:02.144Z,96180.00
2022-09-20T17:13:33.081Z,96181.00
2022-09-20T17:19:07.426Z,96184.00
2022-09-20T17:24:35.208Z,96194.00
2022-09-20T17:30:04.207Z,96206.00
2022-09-20T17:35:32.073Z,96204.00
2022-09-20T17:41:15.669Z,96218.00
2022-09-20T17:46:46.374Z,96219.00
2022-09-20T17:52:14.568Z,96228.00
2022-09-20T17:57:42.299Z,96238.00
2022-09-20T18:03:10.156Z,96239.00
2022-09-20T18:08:38.433Z,96246.00
2022-09-20T18:14:10.389Z,96248.00
2022-09-20T18:19:40.103Z,96249.00
2022-09-20T18:25:08.403Z,96258.00
2022-09-20T18:30:36.122Z,96257.00
2022-09-20T18:36:06.268Z,96263.00
2022-09-20T18:41:41.167Z,96276.00
2022-09-20T18:47:09.907Z,96279.00
2022-09-20T18:52:39.167Z,96270.00
2022-09-20T18:58:10.655Z,96278.00
2022-09-20T19:03:57.891Z,96283.00
2022-09-20T19:10:05.953Z,96290.00
2022-09-20T19:16:15.745Z,96292.00
2022-09-20T19:22:25.243Z,96306.00
2022-09-20T19:27:54.564Z,96308.00
2022-09-20T19:33:23.487Z,96314.00
2022-09-20T19:39:34.728Z,96316.00
2022-09-20T19:45:40.813Z,96321.00
2022-09-20T19:51:13.998Z,96326.00
2022-09-20T19:56:59.615Z,96324.00
2022-09-20T20:02:27.817Z,96334.00
2022-09-20T20:08:10.712Z,96326.00
2022-09-20T20:14:13.654Z,96338.00
2022-09-20T20:19:51.268Z,96339.00
2022-09-20T20:25:31.385Z,96341.00
2022-09-20T20:31:02.347Z,96348.00
2022-09-20T20:36:30.222Z,96359.00
2022-09-20T20:42:06.086Z,96356.00
2022-09-20T20:47:34.411Z,96355.00
2022-09-20T20:53:02.510Z,96352.00
2022-09-20T20:58:34.697Z,96359.00
2022-09-20T21:04:04.691Z,96357.00
2022-09-20T21:09:32.484Z,96361.00
2022-09-20T21:15:00.278Z,96372.00
2022-09-20T21:20:28.477Z,96368.00
2022-09-20T21:26:08.551Z,96373.00
2022-09-20T21:31:40.869Z,96371.00
2022-09-20T21:37:09.633Z,96373.00
2022-09-20T21:42:37.395Z,96381.00
2022-09-20T21:48:06.721Z,96375.00
2022-09-20T21:53:35.225Z,96377.00
2022-09-20T21:59:06.293Z,96376.00
2022-09-20T22:04:34.332Z,96378.00
2022-09-20T22:10:02.071Z,96376.00
2022-09-20T22:15:30.147Z,96374.00
2022-09-20T22:21:17.827Z,96370.00
2022-09-20T22:26:49.273Z,96376.00
2022-09-20T22:32:17.115Z,96372.00
2022-09-20T22:37:44.839Z,96370.00
2022-09-20T22:43:12.580Z,96364.00
2022-09-20T22:48:41.924Z,96366.00
2022-09-20T22:54:12.351Z,96359.00
2022-09-20T22:59:40.150Z,96369.00
2022-09-20T23:05:08.292Z,96363.00
2022-09-20T23:10:35.985Z,96356.00
2022-09-20T23:16:25.238Z,96361.00
2022-09-20T23:21:53.077Z,96357.00
2022-09-20T23:27:20.871Z,96355.00
2022-09-20T23:32:48.598Z,96354.00
2022-09-20T23:38:16.366Z,96366.00
2022-09-20T23:43:44.653Z,96360.00
2022-09-20T23:49:12.532Z,96356.00
2022-09-20T23:54:40.694Z,96358.00
